createdAt,value
2023-05-02T00:00:57.098Z,68.57
2023-05-02T00:03:29.252Z,68.46
2023-05-02T00:06:04.881Z,68.36
2023-05-02T00:08:37.012Z,68.32
2023-05-02T00:11:09.077Z,68.16
2023-05-02T00:13:41.353Z,68.01
2023-05-02T00:16:13.430Z,68.21
2023-05-02T00:18:45.813Z,68.39
2023-05-02T00:21:17.978Z,68.67
2023-05-02T00:23:52.319Z,69.12
2023-05-02T00:26:24.055Z,69.45
2023-05-02T00:28:55.893Z,69.12
2023-05-02T00:31:29.920Z,69.64
2023-05-02T00:34:01.893Z,69.81
2023-05-02T00:36:34.042Z,70.17
2023-05-02T00:39:06.396Z,70.34
2023-05-02T00:41:38.480Z,70.57
2023-05-02T00:44:10.630Z,70.72
2023-05-02T00:46:43.145Z,70.79
2023-05-02T00:49:15.373Z,70.82
2023-05-02T00:51:47.747Z,70.89
2023-05-02T00:54:19.806Z,70.96
2023-05-02T00:56:51.986Z,71.05
2023-05-02T00:59:24.716Z,71.10
2023-05-02T01:02:15.370Z,71.09
2023-05-02T01:05:05.321Z,70.93
2023-05-02T01:07:56.294Z,70.82
2023-05-02T01:10:46.190Z,70.77
2023-05-02T01:13:27.555Z,70.42
2023-05-02T01:16:01.887Z,70.17
2023-05-02T01:18:37.020Z,70.42
2023-05-02T01:21:11.742Z,70.06
2023-05-02T01:24:01.879Z,70.13
2023-05-02T01:26:39.768Z,69.93
2023-05-02T01:29:14.742Z,70.25
2023-05-02T01:31:49.734Z,70.28
2023-05-02T01:34:22.891Z,70.20
2023-05-02T01:36:57.871Z,70.75
2023-05-02T01:39:31.456Z,70.93
2023-05-02T01:42:04.359Z,71.19
2023-05-02T01:44:37.743Z,71.33
2023-05-02T01:47:11.686Z,71.54
2023-05-02T01:49:44.595Z,71.89
2023-05-02T01:52:17.895Z,72.20
2023-05-02T01:54:51.615Z,72.25
2023-05-02T01:57:24.015Z,72.45
2023-05-02T01:59:58.572Z,72.49
2023-05-02T02:02:32.708Z,72.27
2023-05-02T02:05:07.150Z,72.45
2023-05-02T02:07:40.630Z,72.25
2023-05-02T02:10:14.044Z,72.45
2023-05-02T02:12:58.611Z,72.54
2023-05-02T02:15:32.286Z,72.68
2023-05-02T02:18:10.053Z,72.87
2023-05-02T02:20:44.654Z,73.06
2023-05-02T02:23:18.504Z,73.26
2023-05-02T02:25:52.791Z,73.42
2023-05-02T02:28:24.880Z,73.59
2023-05-02T02:30:57.424Z,73.42
2023-05-02T02:33:31.740Z,73.28
2023-05-02T02:36:04.584Z,73.30
2023-05-02T02:38:51.388Z,73.11
2023-05-02T02:41:26.588Z,72.74
2023-05-02T02:44:07.534Z,72.31
2023-05-02T02:47:01.870Z,72.14
2023-05-02T02:49:48.887Z,71.47
2023-05-02T02:52:23.945Z,71.47
2023-05-02T02:55:04.364Z,71.37
2023-05-02T02:57:42.378Z,71.16
2023-05-02T03:00:23.262Z,70.85
2023-05-02T03:02:57.038Z,70.55
2023-05-02T03:05:30.428Z,70.65
2023-05-02T03:08:02.528Z,70.08
2023-05-02T03:10:34.568Z,69.63
2023-05-02T03:13:06.708Z,69.54
2023-05-02T03:15:44.259Z,69.19
2023-05-02T03:18:17.114Z,69.42
2023-05-02T03:20:49.224Z,68.87
2023-05-02T03:23:21.365Z,68.62
2023-05-02T03:25:53.857Z,68.27
2023-05-02T03:28:26.236Z,67.93
2023-05-02T03:30:59.105Z,67.51
2023-05-02T03:33:31.799Z,66.83
2023-05-02T03:36:03.787Z,66.08
2023-05-02T03:38:35.899Z,65.56
2023-05-02T03:41:08.646Z,65.09
2023-05-02T03:43:41.086Z,64.68
2023-05-02T03:46:13.221Z,64.39
2023-05-02T03:48:46.663Z,64.23
2023-05-02T03:51:19.312Z,63.82
2023-05-02T03:53:53.184Z,63.64
2023-05-02T03:56:25.411Z,63.89
2023-05-02T03:58:59.354Z,63.59
2023-05-02T04:01:32.469Z,63.16
2023-05-02T04:04:05.786Z,62.96
2023-05-02T04:06:39.838Z,62.56
2023-05-02T04:09:13.411Z,62.01
2023-05-02T04:11:47.475Z,61.43
2023-05-02T04:14:19.887Z,60.86
2023-05-02T04:16:53.698Z,60.32
2023-05-02T04:19:31.346Z,59.94
2023-05-02T04:22:04.495Z,59.26
2023-05-02T04:24:39.036Z,58.60
2023-05-02T04:27:15.125Z,58.17
2023-05-02T04:29:51.001Z,57.90
2023-05-02T04:32:24.112Z,57.81
2023-05-02T04:34:56.650Z,57.88
2023-05-02T04:37:29.042Z,57.14
2023-05-02T04:40:03.615Z,56.93
2023-05-02T04:42:36.122Z,56.74
2023-05-02T04:45:16.030Z,56.60
2023-05-02T04:47:49.979Z,56.02
2023-05-02T04:50:22.318Z,55.90
2023-05-02T04:52:55.050Z,55.48
2023-05-02T04:55:27.563Z,54.65
2023-05-02T04:57:59.879Z,54.93
2023-05-02T05:00:32.536Z,54.63
2023-05-02T05:03:07.723Z,54.37
2023-05-02T05:05:40.690Z,54.50
2023-05-02T05:08:14.843Z,53.42
2023-05-02T05:10:47.377Z,53.88
2023-05-02T05:13:20.206Z,53.45
2023-05-02T05:15:54.103Z,53.00
2023-05-02T05:18:28.035Z,52.53
2023-05-02T05:21:00.393Z,52.19
2023-05-02T05:23:33.259Z,51.75
2023-05-02T05:26:16.870Z,50.67
2023-05-02T05:28:50.857Z,50.03
2023-05-02T05:31:24.540Z,49.15
2023-05-02T05:33:59.148Z,48.94
2023-05-02T05:36:32.463Z,49.55
2023-05-02T05:39:06.044Z,48.94
2023-05-02T05:41:39.637Z,48.90
2023-05-02T05:44:13.500Z,49.85
2023-05-02T05:46:45.741Z,48.65
2023-05-02T05:49:18.554Z,48.72
2023-05-02T05:51:51.481Z,48.23
2023-05-02T05:54:24.344Z,47.63
2023-05-02T05:56:57.481Z,47.14
2023-05-02T05:59:29.574Z,47.19
2023-05-02T06:02:01.873Z,45.09
2023-05-02T06:04:34.453Z,44.25
2023-05-02T06:07:07.413Z,43.75
2023-05-02T06:09:39.811Z,43.63
2023-05-02T06:12:12.189Z,42.03
2023-05-02T06:14:45.468Z,41.00
2023-05-02T06:17:18.347Z,37.25
2023-05-02T06:19:50.420Z,35.20
2023-05-02T06:22:22.571Z,34.24
2023-05-02T06:24:55.061Z,33.81
2023-05-02T06:27:27.494Z,32.21
2023-05-02T06:30:00.021Z,31.85
2023-05-02T06:32:34.207Z,29.84
2023-05-02T06:35:06.960Z,28.96
2023-05-02T06:37:39.124Z,28.08
2023-05-02T06:40:11.918Z,28.96
2023-05-02T06:42:44.329Z,29.09
2023-05-02T06:45:16.432Z,30.41
2023-05-02T06:47:48.840Z,30.39
2023-05-02T06:50:21.810Z,31.60
2023-05-02T06:52:54.283Z,31.25
2023-05-02T06:55:27.028Z,31.37
2023-05-02T06:57:59.294Z,32.45
2023-05-02T07:00:31.900Z,32.82
2023-05-02T07:03:04.865Z,33.63
2023-05-02T07:05:37.372Z,33.31
2023-05-02T07:08:10.704Z,33.15
2023-05-02T07:10:42.932Z,34.27
2023-05-02T07:13:15.309Z,33.26
2023-05-02T07:15:47.448Z,33.51
2023-05-02T07:18:19.953Z,33.25
2023-05-02T07:20:52.764Z,33.82
2023-05-02T07:23:25.188Z,33.62
2023-05-02T07:25:57.305Z,33.58
2023-05-02T07:28:29.838Z,32.40
2023-05-02T07:31:02.103Z,32.80
2023-05-02T07:33:34.260Z,33.46
2023-05-02T07:36:06.874Z,33.27
2023-05-02T07:38:39.030Z,32.56
2023-05-02T07:41:11.351Z,34.01
2023-05-02T07:43:43.522Z,34.20
2023-05-02T07:46:15.883Z,33.44
2023-05-02T07:48:48.389Z,33.87
2023-05-02T07:51:21.733Z,34.21
2023-05-02T07:53:55.697Z,34.41
2023-05-02T07:56:28.279Z,34.33
2023-05-02T07:59:00.838Z,34.59
2023-05-02T08:01:33.093Z,34.48
2023-05-02T08:04:05.962Z,34.55
2023-05-02T08:06:38.527Z,34.83
2023-05-02T08:09:10.948Z,34.92
2023-05-02T08:11:43.345Z,34.83
2023-05-02T08:14:16.754Z,34.91
2023-05-02T08:16:49.332Z,34.61
2023-05-02T08:19:21.784Z,35.97
2023-05-02T08:21:56.348Z,34.20
2023-05-02T08:24:28.212Z,34.76
2023-05-02T08:27:00.307Z,36.05
2023-05-02T08:29:32.754Z,33.41
2023-05-02T08:32:05.034Z,34.38
2023-05-02T08:34:37.348Z,34.34
2023-05-02T08:37:10.549Z,33.34
2023-05-02T08:39:43.146Z,33.21
2023-05-02T08:42:15.290Z,32.23
2023-05-02T08:44:48.211Z,32.10
2023-05-02T08:47:22.078Z,31.99
2023-05-02T08:49:57.257Z,32.92
2023-05-02T08:52:31.447Z,33.03
2023-05-02T08:55:05.552Z,32.26
2023-05-02T08:57:37.823Z,31.92
2023-05-02T09:00:11.152Z,32.00
2023-05-02T09:02:53.528Z,32.63
2023-05-02T09:05:26.650Z,31.77
2023-05-02T09:07:58.690Z,31.51
2023-05-02T09:10:31.805Z,30.90
2023-05-02T09:13:31.510Z,32.21
2023-05-02T09:16:10.270Z,31.68
2023-05-02T09:18:45.705Z,32.10
2023-05-02T09:21:21.166Z,31.77
2023-05-02T09:24:00.379Z,31.59
2023-05-02T09:26:33.758Z,31.20
2023-05-02T09:29:06.774Z,31.46
2023-05-02T09:34:15.277Z,31.33
2023-05-02T09:36:54.743Z,31.18
2023-05-02T09:39:32.389Z,31.31
2023-05-02T09:42:04.900Z,30.85
2023-05-02T09:44:40.838Z,30.59
2023-05-02T09:47:14.588Z,31.66
2023-05-02T09:49:48.744Z,30.54
2023-05-02T09:52:25.277Z,30.72
2023-05-02T09:54:57.882Z,30.75
2023-05-02T09:57:42.646Z,29.83
2023-05-02T10:00:17.390Z,29.76
2023-05-02T10:02:51.884Z,30.27
2023-05-02T10:05:24.499Z,29.12
2023-05-02T10:07:56.823Z,29.36
2023-05-02T10:10:29.415Z,29.81
2023-05-02T10:13:04.174Z,29.63
2023-05-02T10:15:37.014Z,29.54
2023-05-02T10:18:13.448Z,30.58
2023-05-02T10:20:51.231Z,30.74
2023-05-02T10:23:25.418Z,29.78
2023-05-02T10:26:00.855Z,30.36
2023-05-02T10:28:33.028Z,30.50
2023-05-02T10:31:07.346Z,31.27
2023-05-02T10:33:40.956Z,31.25
2023-05-02T10:36:13.881Z,30.43
2023-05-02T10:38:47.641Z,29.35
2023-05-02T10:41:22.959Z,29.21
2023-05-02T10:43:55.766Z,29.53
2023-05-02T10:46:41.620Z,29.52
2023-05-02T10:49:14.678Z,28.71
2023-05-02T10:51:47.068Z,29.19
2023-05-02T10:54:27.017Z,29.68
2023-05-02T10:57:06.165Z,29.70
2023-05-02T10:59:40.774Z,28.60
2023-05-02T11:02:27.488Z,29.10
2023-05-02T11:05:19.216Z,30.68
2023-05-02T11:07:51.801Z,29.68
2023-05-02T11:10:26.537Z,29.19
2023-05-02T11:13:01.349Z,28.77
2023-05-02T11:15:34.200Z,28.35
2023-05-02T11:18:14.746Z,30.57
2023-05-02T11:20:47.062Z,28.37
2023-05-02T11:23:28.105Z,28.21
2023-05-02T11:26:04.597Z,27.51
2023-05-02T11:28:39.562Z,24.72
2023-05-02T11:31:33.150Z,23.75
2023-05-02T11:34:05.935Z,23.27
2023-05-02T11:36:38.819Z,23.45
2023-05-02T11:39:13.807Z,25.17
2023-05-02T11:41:47.621Z,24.88
2023-05-02T11:44:19.819Z,25.02
2023-05-02T11:46:52.151Z,25.48
2023-05-02T11:49:24.956Z,27.27
2023-05-02T11:51:57.153Z,25.98
2023-05-02T11:54:29.288Z,23.44
2023-05-02T11:57:03.120Z,22.37
2023-05-02T11:59:52.589Z,19.30
2023-05-02T12:02:44.941Z,18.58
2023-05-02T12:05:18.770Z,16.89
2023-05-02T12:07:51.874Z,15.29
2023-05-02T12:10:24.413Z,14.23
2023-05-02T12:12:59.932Z,12.85
2023-05-02T12:15:32.332Z,12.05
2023-05-02T12:18:04.840Z,11.04
2023-05-02T12:20:38.790Z,10.22
2023-05-02T12:23:11.607Z,9.33
2023-05-02T12:25:44.723Z,8.72
2023-05-02T12:28:23.217Z,8.63
2023-05-02T12:30:55.257Z,8.51
2023-05-02T12:33:27.805Z,8.18
2023-05-02T12:36:03.077Z,7.37
2023-05-02T12:38:35.443Z,7.55
2023-05-02T12:41:07.786Z,6.95
2023-05-02T12:43:51.374Z,6.74
2023-05-02T12:46:23.839Z,6.51
2023-05-02T12:49:08.493Z,6.65
2023-05-02T12:51:41.625Z,6.08
2023-05-02T12:54:17.242Z,5.77
2023-05-02T12:56:51.314Z,5.77
2023-05-02T12:59:29.532Z,6.05
2023-05-02T13:02:01.982Z,8.15
2023-05-02T13:04:42.200Z,6.21
2023-05-02T13:07:14.402Z,5.67
2023-05-02T13:09:46.593Z,5.58
2023-05-02T13:12:18.833Z,5.55
2023-05-02T13:14:51.071Z,5.39
2023-05-02T13:17:23.520Z,5.22
2023-05-02T13:20:01.574Z,5.08
2023-05-02T13:22:29.195Z,5.05
2023-05-02T13:25:01.557Z,4.57
2023-05-02T13:27:34.552Z,4.87
2023-05-02T13:30:09.443Z,4.92
2023-05-02T13:32:42.098Z,4.80
2023-05-02T13:35:15.881Z,5.08
2023-05-02T13:37:48.109Z,4.89
2023-05-02T13:40:20.977Z,4.90
2023-05-02T13:42:53.369Z,5.05
2023-05-02T13:45:25.755Z,5.08
2023-05-02T13:47:57.999Z,5.12
2023-05-02T13:50:30.768Z,4.94
2023-05-02T13:53:03.695Z,5.43
2023-05-02T13:55:37.270Z,5.60
2023-05-02T13:58:09.460Z,5.43
2023-05-02T14:00:42.304Z,5.88
2023-05-02T14:03:14.532Z,5.39
2023-05-02T14:05:46.878Z,5.50
2023-05-02T14:08:19.999Z,5.55
2023-05-02T14:10:52.630Z,6.07
2023-05-02T14:13:25.656Z,5.96
2023-05-02T14:15:59.403Z,5.50
2023-05-02T14:18:31.918Z,5.54
2023-05-02T14:21:04.560Z,5.10
2023-05-02T14:23:37.271Z,5.58
2023-05-02T14:26:09.490Z,5.67
2023-05-02T14:28:41.508Z,5.49
2023-05-02T14:31:14.398Z,5.39
2023-05-02T14:33:46.820Z,5.70
2023-05-02T14:36:18.865Z,5.88
2023-05-02T14:38:51.118Z,5.90
2023-05-02T14:41:24.138Z,6.80
2023-05-02T14:43:56.493Z,5.98
2023-05-02T14:46:28.607Z,5.99
2023-05-02T14:49:01.045Z,6.16
2023-05-02T14:51:33.239Z,6.06
2023-05-02T14:54:05.340Z,6.11
2023-05-02T14:56:37.592Z,6.16
2023-05-02T14:59:09.908Z,6.18
2023-05-02T15:01:42.101Z,6.32
2023-05-02T15:04:14.288Z,7.11
2023-05-02T15:06:48.329Z,8.54
2023-05-02T15:09:19.783Z,9.90
2023-05-02T15:11:51.768Z,10.73
2023-05-02T15:14:24.341Z,12.96
2023-05-02T15:16:56.877Z,14.81
2023-05-02T15:19:29.530Z,15.78
2023-05-02T15:22:01.880Z,16.79
2023-05-02T15:24:34.588Z,18.08
2023-05-02T15:27:06.714Z,18.56
2023-05-02T15:29:39.069Z,19.71
2023-05-02T15:32:11.797Z,20.00
2023-05-02T15:34:44.738Z,20.63
2023-05-02T15:37:17.362Z,20.51
2023-05-02T15:39:50.889Z,21.58
2023-05-02T15:42:23.058Z,22.39
2023-05-02T15:44:55.534Z,22.47
2023-05-02T15:47:28.090Z,22.55
2023-05-02T15:50:01.803Z,23.43
2023-05-02T15:52:34.565Z,23.23
2023-05-02T15:55:06.978Z,23.79
2023-05-02T15:57:39.504Z,23.96
2023-05-02T16:00:14.366Z,23.97
2023-05-02T16:02:46.742Z,24.33
2023-05-02T16:05:19.508Z,24.60
2023-05-02T16:07:51.684Z,24.76
2023-05-02T16:10:24.359Z,24.75
2023-05-02T16:12:57.207Z,25.19
2023-05-02T16:15:30.623Z,25.45
2023-05-02T16:18:03.803Z,25.59
2023-05-02T16:20:37.059Z,26.04
2023-05-02T16:23:09.714Z,26.11
2023-05-02T16:25:41.961Z,26.01
2023-05-02T16:28:14.164Z,26.32
2023-05-02T16:30:46.215Z,26.81
2023-05-02T16:33:18.601Z,26.70
2023-05-02T16:35:50.640Z,26.94
2023-05-02T16:38:22.651Z,26.87
2023-05-02T16:40:54.992Z,27.23
2023-05-02T16:43:27.369Z,27.48
2023-05-02T16:46:03.500Z,27.69
2023-05-02T16:48:36.089Z,27.53
2023-05-02T16:51:08.335Z,27.47
2023-05-02T16:53:40.454Z,27.84
2023-05-02T16:56:12.822Z,28.08
2023-05-02T16:58:45.010Z,27.93
2023-05-02T17:01:17.389Z,28.01
2023-05-02T17:03:49.761Z,27.98
2023-05-02T17:06:23.153Z,28.40
2023-05-02T17:08:55.314Z,28.68
2023-05-02T17:11:28.628Z,29.03
2023-05-02T17:14:04.295Z,29.38
2023-05-02T17:16:36.634Z,29.84
2023-05-02T17:19:09.203Z,30.04
2023-05-02T17:21:41.612Z,29.88
2023-05-02T17:24:13.773Z,30.24
2023-05-02T17:26:46.018Z,30.59
2023-05-02T17:29:18.544Z,30.45
2023-05-02T17:31:51.871Z,31.42
2023-05-02T17:34:25.943Z,31.42
2023-05-02T17:36:58.220Z,31.49
2023-05-02T17:39:30.293Z,31.88
2023-05-02T17:42:02.831Z,31.75
2023-05-02T17:44:37.730Z,31.57
2023-05-02T17:47:09.799Z,32.11
2023-05-02T17:49:41.989Z,31.85
2023-05-02T17:52:13.976Z,32.10
2023-05-02T17:54:46.254Z,32.10
2023-05-02T17:57:18.410Z,32.08
2023-05-02T17:59:52.127Z,32.08
2023-05-02T18:02:24.699Z,32.69
2023-05-02T18:04:57.322Z,32.36
2023-05-02T18:07:30.252Z,32.87
2023-05-02T18:10:04.299Z,33.19
2023-05-02T18:12:36.801Z,33.17
2023-05-02T18:15:09.630Z,33.42
2023-05-02T18:17:41.867Z,33.96
2023-05-02T18:20:14.924Z,33.11
2023-05-02T18:22:47.222Z,33.61
2023-05-02T18:25:19.661Z,33.42
2023-05-02T18:27:51.880Z,33.43
2023-05-02T18:30:24.362Z,33.88
2023-05-02T18:32:56.804Z,33.76
2023-05-02T18:35:28.819Z,33.63
2023-05-02T18:38:01.690Z,33.72
2023-05-02T18:40:33.648Z,33.74
2023-05-02T18:43:05.877Z,33.92
2023-05-02T18:45:37.958Z,33.67
2023-05-02T18:48:10.267Z,33.91
2023-05-02T18:50:42.886Z,34.14
2023-05-02T18:53:15.601Z,34.15
2023-05-02T18:55:48.191Z,34.04
2023-05-02T18:58:20.489Z,34.09
2023-05-02T19:00:52.880Z,34.01
2023-05-02T19:03:25.555Z,34.10
2023-05-02T19:05:57.881Z,34.12
2023-05-02T19:08:29.861Z,34.10
2023-05-02T19:11:02.150Z,34.22
2023-05-02T19:13:34.331Z,34.32
2023-05-02T19:16:08.169Z,34.03
2023-05-02T19:18:41.119Z,33.92
2023-05-02T19:21:14.889Z,34.03
2023-05-02T19:23:47.091Z,34.44
2023-05-02T19:26:19.682Z,34.55
2023-05-02T19:28:51.908Z,34.33
2023-05-02T19:31:24.054Z,34.24
2023-05-02T19:33:56.227Z,34.46
2023-05-02T19:36:29.889Z,34.54
2023-05-02T19:39:02.286Z,35.05
2023-05-02T19:41:34.713Z,34.63
2023-05-02T19:44:06.905Z,35.05
2023-05-02T19:46:38.923Z,34.84
2023-05-02T19:49:11.194Z,34.90
2023-05-02T19:51:43.419Z,34.75
2023-05-02T19:54:15.613Z,34.80
2023-05-02T19:56:49.005Z,34.75
2023-05-02T19:59:21.256Z,34.59
2023-05-02T20:01:53.462Z,34.78
2023-05-02T20:04:25.991Z,34.83
2023-05-02T20:06:58.681Z,34.94
2023-05-02T20:09:30.925Z,35.33
2023-05-02T20:12:03.634Z,35.05
2023-05-02T20:14:35.683Z,34.94
2023-05-02T20:17:08.382Z,35.16
2023-05-02T20:19:40.790Z,35.31
2023-05-02T20:22:12.896Z,35.35
2023-05-02T20:24:45.043Z,34.98
2023-05-02T20:27:17.156Z,35.19
2023-05-02T20:29:49.414Z,35.42
2023-05-02T20:32:21.905Z,35.36
2023-05-02T20:34:54.257Z,35.22
2023-05-02T20:37:26.794Z,35.25
2023-05-02T20:39:59.742Z,35.29
2023-05-02T20:42:33.972Z,35.34
2023-05-02T20:45:08.138Z,35.05
2023-05-02T20:47:39.776Z,35.20
2023-05-02T20:50:11.908Z,34.38
2023-05-02T20:52:43.902Z,35.19
2023-05-02T20:55:16.177Z,35.81
2023-05-02T20:57:49.868Z,35.67
2023-05-02T21:00:23.017Z,35.96
2023-05-02T21:02:55.524Z,35.74
2023-05-02T21:05:27.667Z,36.21
2023-05-02T21:08:00.048Z,36.13
2023-05-02T21:10:32.566Z,36.12
2023-05-02T21:13:04.950Z,36.13
2023-05-02T21:15:37.489Z,36.28
2023-05-02T21:18:09.825Z,36.25
2023-05-02T21:20:42.262Z,36.16
2023-05-02T21:23:14.548Z,35.96
2023-05-02T21:25:46.587Z,36.12
2023-05-02T21:28:18.802Z,35.95
2023-05-02T21:30:50.944Z,35.85
2023-05-02T21:33:23.067Z,36.09
2023-05-02T21:35:59.486Z,35.94
2023-05-02T21:38:31.617Z,35.99
2023-05-02T21:41:05.366Z,35.91
2023-05-02T21:43:41.624Z,36.15
2023-05-02T21:46:14.174Z,36.24
2023-05-02T21:48:46.391Z,36.41
2023-05-02T21:51:18.470Z,36.04
2023-05-02T21:53:51.042Z,36.23
2023-05-02T21:56:23.147Z,36.25
2023-05-02T21:58:55.329Z,35.80
2023-05-02T22:01:27.551Z,35.97
2023-05-02T22:03:59.629Z,36.09
2023-05-02T22:06:32.898Z,35.75
2023-05-02T22:09:05.194Z,36.02
2023-05-02T22:11:37.394Z,36.02
2023-05-02T22:14:09.389Z,35.89
2023-05-02T22:16:41.789Z,36.26
2023-05-02T22:19:17.797Z,36.31
2023-05-02T22:21:50.082Z,36.55
2023-05-02T22:24:22.259Z,36.86
2023-05-02T22:26:55.729Z,37.19
2023-05-02T22:29:27.734Z,37.21
2023-05-02T22:31:59.941Z,37.11
2023-05-02T22:34:32.102Z,37.48
2023-05-02T22:37:04.498Z,37.44
2023-05-02T22:39:36.574Z,37.46
2023-05-02T22:42:08.702Z,37.55
2023-05-02T22:44:53.277Z,37.49
2023-05-02T22:47:14.592Z,37.58
2023-05-02T22:49:46.544Z,37.74
2023-05-02T22:52:18.661Z,37.68
2023-05-02T22:54:50.870Z,37.72
2023-05-02T22:57:23.192Z,37.66
2023-05-02T22:59:55.367Z,37.78
2023-05-02T23:02:27.599Z,37.81
2023-05-02T23:05:00.247Z,37.69
2023-05-02T23:07:34.197Z,37.53
2023-05-02T23:10:07.201Z,37.72
2023-05-02T23:12:39.414Z,37.68
2023-05-02T23:15:11.931Z,37.85
2023-05-02T23:17:44.250Z,38.01
2023-05-02T23:20:17.958Z,38.07
2023-05-02T23:22:50.212Z,38.56
2023-05-02T23:25:23.863Z,38.56
2023-05-02T23:27:56.010Z,38.50
2023-05-02T23:30:29.590Z,38.33
2023-05-02T23:33:01.966Z,38.53
2023-05-02T23:35:34.812Z,38.51
2023-05-02T23:38:09.279Z,38.63
2023-05-02T23:40:41.216Z,38.87
2023-05-02T23:43:14.135Z,38.60
2023-05-02T23:45:47.448Z,39.13
2023-05-02T23:48:21.423Z,38.97
2023-05-02T23:50:54.164Z,38.67
2023-05-02T23:53:26.308Z,38.84
2023-05-02T23:55:59.404Z,38.61
2023-05-02T23:58:31.668Z,38.69
